Time;durP1;ratioP1;P1;durP2;ratioP2;P2;SDS_P1;SDS_P2;PMS_P1;PMS_P2;Temp;Humidity;BMP_temperature;BMP_pressure;BME280_temperature;BME280_humidity;BME280_pressure;Samples;Min_cycle;Max_cycle;Signal;HPM_P1;HPM_P2
2024/01/17 00:00:10;;;;;;;12.25;7.55;;;;;;;;;;4923647;29;20127;-83
2024/01/17 00:02:37;;;;;;;13.82;7.88;;;;;;;;;;4938402;29;20055;-83
2024/01/17 00:05:04;;;;;;;14.85;7.50;;;;;;;;;;4927155;29;20087;-82
2024/01/17 00:07:31;;;;;;;16.38;8.20;;;;;;;;;;4926268;29;20503;-82
2024/01/17 00:09:58;;;;;;;17.55;7.20;;;;;;;;;;4941957;28;20055;-81
2024/01/17 00:12:25;;;;;;;13.57;7.68;;;;;;;;;;4925943;29;20055;-82
2024/01/17 00:14:52;;;;;;;14.90;7.88;;;;;;;;;;4943145;28;20500;-82
2024/01/17 00:17:19;;;;;;;14.25;7.13;;;;;;;;;;4927071;29;20061;-83
2024/01/17 00:19:46;;;;;;;15.40;8.35;;;;;;;;;;4943357;29;20051;-82
2024/01/17 00:22:16;;;;;;;15.80;7.90;;;;;;;;;;4926999;29;20134;-82
2024/01/17 00:24:43;;;;;;;10.27;6.90;;;;;;;;;;4943532;28;20070;-82
2024/01/17 00:27:12;;;;;;;15.25;7.95;;;;;;;;;;4943052;29;20606;-83
2024/01/17 00:29:40;;;;;;;15.75;8.00;;;;;;;;;;4924137;29;20058;-83
2024/01/17 00:32:07;;;;;;;14.80;7.53;;;;;;;;;;4935636;28;20559;-82
2024/01/17 00:34:35;;;;;;;12.88;7.13;;;;;;;;;;4929561;29;20070;-83
2024/01/17 00:37:06;;;;;;;13.35;6.82;;;;;;;;;;4962698;29;20106;-83
2024/01/17 00:39:33;;;;;;;16.55;7.88;;;;;;;;;;4929714;29;20054;-81
2024/01/17 00:41:59;;;;;;;13.63;7.53;;;;;;;;;;4945124;29;20435;-83
2024/01/17 00:44:28;;;;;;;14.60;7.93;;;;;;;;;;4928631;29;20518;-83
2024/01/17 00:46:55;;;;;;;16.63;8.98;;;;;;;;;;4944187;28;20059;-82
2024/01/17 00:49:22;;;;;;;16.58;7.90;;;;;;;;;;4927484;29;20058;-83
2024/01/17 00:51:49;;;;;;;14.98;7.68;;;;;;;;;;4927778;29;20134;-84
2024/01/17 00:54:16;;;;;;;13.90;7.63;;;;;;;;;;4927679;29;20109;-85
2024/01/17 00:56:42;;;;;;;15.63;8.27;;;;;;;;;;4944163;29;20063;-83
2024/01/17 00:59:09;;;;;;;14.27;7.43;;;;;;;;;;4926379;29;20058;-83
2024/01/17 01:01:36;;;;;;;11.55;7.60;;;;;;;;;;4925016;29;20051;-82
2024/01/17 01:04:03;;;;;;;14.98;8.73;;;;;;;;;;4924267;29;20052;-82
2024/01/17 01:06:30;;;;;;;13.90;7.40;;;;;;;;;;4924748;29;20526;-81
2024/01/17 01:08:57;;;;;;;16.10;7.72;;;;;;;;;;4939888;29;20059;-81
2024/01/17 01:11:34;;;;;;;15.52;7.95;;;;;;;;;;4924357;29;20051;-82
2024/01/17 01:14:01;;;;;;;14.25;7.82;;;;;;;;;;4940676;28;20507;-81
2024/01/17 01:16:28;;;;;;;11.68;7.20;;;;;;;;;;4924213;29;20110;-84
2024/01/17 01:18:55;;;;;;;15.90;7.90;;;;;;;;;;4941809;28;20054;-82
2024/01/17 01:21:22;;;;;;;14.60;8.07;;;;;;;;;;4926498;29;20074;-83
2024/01/17 01:23:49;;;;;;;18.38;8.95;;;;;;;;;;4943114;28;20063;-83
2024/01/17 01:26:16;;;;;;;16.27;8.02;;;;;;;;;;4928871;29;20054;-83
2024/01/17 01:28:43;;;;;;;15.45;8.15;;;;;;;;;;4940897;29;20134;-84
2024/01/17 01:31:10;;;;;;;15.18;7.68;;;;;;;;;;4926685;29;20051;-82
2024/01/17 01:33:37;;;;;;;13.45;7.82;;;;;;;;;;4939297;29;20052;-83
2024/01/17 01:36:05;;;;;;;17.60;8.13;;;;;;;;;;4942406;29;20555;-83
2024/01/17 01:38:32;;;;;;;14.85;7.82;;;;;;;;;;4927250;29;20102;-83
2024/01/17 01:40:59;;;;;;;13.80;8.10;;;;;;;;;;4942095;29;20081;-82
2024/01/17 01:43:26;;;;;;;15.70;8.48;;;;;;;;;;4923857;29;20479;-82
2024/01/17 01:46:21;;;;;;;13.10;7.60;;;;;;;;;;4939319;28;20137;-82
2024/01/17 01:48:48;;;;;;;12.13;7.88;;;;;;;;;;4924549;29;20075;-81
2024/01/17 01:51:16;;;;;;;14.73;8.18;;;;;;;;;;4924342;29;20051;-81
2024/01/17 01:53:43;;;;;;;15.88;8.40;;;;;;;;;;4939533;29;20055;-82
2024/01/17 01:56:13;;;;;;;17.35;8.60;;;;;;;;;;4923561;29;20066;-83
2024/01/17 01:58:40;;;;;;;12.30;7.93;;;;;;;;;;4938982;29;20055;-81
2024/01/17 02:01:07;;;;;;;14.80;8.68;;;;;;;;;;4922293;29;20074;-81
2024/01/17 02:03:34;;;;;;;14.05;7.32;;;;;;;;;;4938173;29;20055;-82
2024/01/17 02:06:02;;;;;;;13.38;8.35;;;;;;;;;;4938618;28;20439;-82
2024/01/17 02:08:29;;;;;;;12.65;7.93;;;;;;;;;;4922737;29;20051;-82
2024/01/17 02:10:56;;;;;;;19.25;9.15;;;;;;;;;;4938123;29;20055;-83
2024/01/17 02:13:23;;;;;;;18.25;9.02;;;;;;;;;;4922593;29;20147;-82
2024/01/17 02:15:50;;;;;;;16.00;9.07;;;;;;;;;;4922105;29;20051;-82
2024/01/17 02:18:16;;;;;;;15.52;8.38;;;;;;;;;;4937398;29;20055;-82
2024/01/17 02:20:43;;;;;;;14.10;7.68;;;;;;;;;;4922004;29;20111;-82
2024/01/17 02:23:26;;;;;;;16.00;7.95;;;;;;;;;;4922176;29;20553;-81
2024/01/17 02:25:55;;;;;;;11.77;7.85;;;;;;;;;;4922346;29;20055;-82
2024/01/17 02:28:23;;;;;;;15.23;7.65;;;;;;;;;;4922538;29;20423;-83
2024/01/17 02:30:50;;;;;;;16.50;8.48;;;;;;;;;;4922831;29;20106;-83
2024/01/17 02:33:17;;;;;;;17.05;8.23;;;;;;;;;;4923350;29;20063;-82
2024/01/17 02:35:44;;;;;;;13.50;7.18;;;;;;;;;;4923142;29;20142;-82
2024/01/17 02:38:11;;;;;;;16.85;8.18;;;;;;;;;;4921928;29;20057;-82
2024/01/17 02:40:37;;;;;;;15.77;8.43;;;;;;;;;;4937359;29;20062;-81
2024/01/17 02:43:05;;;;;;;15.85;8.43;;;;;;;;;;4920865;29;20184;-83
2024/01/17 02:45:31;;;;;;;19.25;8.93;;;;;;;;;;4921424;29;20111;-82
2024/01/17 02:47:58;;;;;;;14.50;8.35;;;;;;;;;;4920978;29;20051;-82
2024/01/17 02:50:26;;;;;;;13.90;7.40;;;;;;;;;;4937161;29;20150;-82
2024/01/17 02:52:53;;;;;;;15.07;7.70;;;;;;;;;;4919560;29;20047;-83
2024/01/17 02:55:22;;;;;;;17.38;7.85;;;;;;;;;;4931012;29;20503;-83
2024/01/17 02:57:53;;;;;;;12.95;7.47;;;;;;;;;;4937463;28;20578;-82
2024/01/17 03:00:20;;;;;;;14.70;8.10;;;;;;;;;;4937458;29;20059;-82
2024/01/17 03:02:47;;;;;;;12.98;7.35;;;;;;;;;;4937292;29;20066;-82
2024/01/17 03:05:14;;;;;;;18.20;7.85;;;;;;;;;;4921921;29;20114;-83
2024/01/17 03:07:41;;;;;;;15.90;8.77;;;;;;;;;;4930541;29;20482;-82
2024/01/17 03:10:11;;;;;;;15.35;8.70;;;;;;;;;;4922908;29;20521;-83
2024/01/17 03:12:39;;;;;;;17.40;9.48;;;;;;;;;;4945748;28;20055;-84
2024/01/17 03:15:07;;;;;;;15.75;7.90;;;;;;;;;;4937818;29;20051;-84
2024/01/17 03:17:36;;;;;;;16.10;8.23;;;;;;;;;;4941943;29;20055;-82
2024/01/17 03:20:05;;;;;;;15.00;7.88;;;;;;;;;;4953111;29;20159;-84
2024/01/17 03:22:33;;;;;;;16.10;8.60;;;;;;;;;;4933447;29;20106;-84
2024/01/17 03:25:00;;;;;;;15.80;8.50;;;;;;;;;;4930570;29;20094;-83
2024/01/17 03:27:27;;;;;;;14.35;7.90;;;;;;;;;;4930610;29;20058;-83
2024/01/17 03:29:54;;;;;;;14.13;8.18;;;;;;;;;;4932623;29;20103;-83
2024/01/17 03:32:21;;;;;;;15.40;8.32;;;;;;;;;;4930223;29;20051;-83
2024/01/17 03:34:47;;;;;;;15.52;8.82;;;;;;;;;;4929899;29;20058;-83
2024/01/17 03:37:14;;;;;;;17.30;9.20;;;;;;;;;;4930018;29;20127;-83
2024/01/17 03:39:44;;;;;;;16.48;8.25;;;;;;;;;;4929540;29;20047;-82
2024/01/17 03:42:15;;;;;;;14.23;8.25;;;;;;;;;;4928814;29;20058;-83
2024/01/17 03:44:43;;;;;;;19.65;8.90;;;;;;;;;;4943591;29;20086;-83
2024/01/17 03:47:11;;;;;;;17.20;8.90;;;;;;;;;;4939401;29;20062;-82
2024/01/17 03:49:38;;;;;;;19.15;9.60;;;;;;;;;;4942552;28;20479;-82
2024/01/17 03:52:07;;;;;;;18.58;11.25;;;;;;;;;;4927058;29;20051;-82
2024/01/17 03:54:37;;;;;;;16.02;9.40;;;;;;;;;;4927414;29;20075;-84
2024/01/17 03:57:04;;;;;;;15.13;8.68;;;;;;;;;;4934766;29;20051;-84
2024/01/17 03:59:31;;;;;;;15.98;7.80;;;;;;;;;;4935765;29;20118;-84
2024/01/17 04:01:58;;;;;;;19.20;8.88;;;;;;;;;;4934920;29;20134;-84
2024/01/17 04:04:25;;;;;;;16.27;9.75;;;;;;;;;;4949959;29;20188;-82
2024/01/17 04:06:53;;;;;;;14.85;8.63;;;;;;;;;;4930932;29;20146;-82
2024/01/17 04:09:20;;;;;;;14.30;8.15;;;;;;;;;;4929649;29;20491;-83
2024/01/17 04:11:47;;;;;;;15.13;8.77;;;;;;;;;;4929822;29;20050;-82
2024/01/17 04:14:14;;;;;;;15.88;9.20;;;;;;;;;;4931274;29;20071;-83
2024/01/17 04:16:41;;;;;;;15.60;9.23;;;;;;;;;;4929745;29;20075;-82
2024/01/17 04:19:11;;;;;;;16.27;8.38;;;;;;;;;;4926784;29;20535;-84
2024/01/17 04:21:38;;;;;;;15.40;8.30;;;;;;;;;;4940520;29;20366;-84
2024/01/17 04:24:04;;;;;;;17.25;7.85;;;;;;;;;;4942842;29;20079;-83
2024/01/17 04:26:31;;;;;;;18.27;9.20;;;;;;;;;;4943286;29;20126;-84
2024/01/17 04:28:58;;;;;;;16.52;8.82;;;;;;;;;;4927448;29;20089;-83
2024/01/17 04:31:27;;;;;;;14.60;8.55;;;;;;;;;;4928410;29;20134;-84
2024/01/17 04:33:54;;;;;;;15.20;8.90;;;;;;;;;;4927879;29;20055;-83
2024/01/17 04:36:22;;;;;;;16.20;9.10;;;;;;;;;;4927811;29;20055;-84
2024/01/17 04:38:49;;;;;;;17.08;9.55;;;;;;;;;;4927983;29;20121;-83
2024/01/17 04:41:16;;;;;;;17.42;9.27;;;;;;;;;;4927944;29;20472;-83
2024/01/17 04:43:46;;;;;;;14.85;9.30;;;;;;;;;;4926857;29;20062;-84
2024/01/17 04:46:14;;;;;;;16.85;9.23;;;;;;;;;;4943559;29;20081;-84
2024/01/17 04:48:42;;;;;;;21.33;9.82;;;;;;;;;;4926683;29;20051;-84
2024/01/17 04:51:10;;;;;;;17.27;10.32;;;;;;;;;;4943081;29;20059;-84
2024/01/17 04:53:43;;;;;;;18.17;9.73;;;;;;;;;;4928243;29;20051;-83
2024/01/17 04:56:11;;;;;;;19.13;9.45;;;;;;;;;;4928723;29;20055;-84
2024/01/17 04:58:40;;;;;;;21.45;10.93;;;;;;;;;;4927538;29;20055;-84
2024/01/17 05:01:06;;;;;;;15.07;9.32;;;;;;;;;;4927099;29;20471;-84
2024/01/17 05:03:34;;;;;;;31.55;15.77;;;;;;;;;;4926760;29;20579;-84
2024/01/17 05:06:01;;;;;;;32.40;17.13;;;;;;;;;;4927291;29;20067;-84
2024/01/17 05:08:29;;;;;;;25.08;14.65;;;;;;;;;;4927318;29;20129;-84
2024/01/17 05:10:56;;;;;;;26.73;13.75;;;;;;;;;;4926278;29;20055;-83
2024/01/17 05:13:23;;;;;;;24.15;13.52;;;;;;;;;;4931993;29;20093;-82
2024/01/17 05:15:50;;;;;;;19.88;10.63;;;;;;;;;;4926054;29;20511;-83
2024/01/17 05:18:17;;;;;;;21.75;11.02;;;;;;;;;;4926628;29;20051;-83
2024/01/17 05:20:44;;;;;;;15.52;9.35;;;;;;;;;;4925635;29;20130;-83
2024/01/17 05:23:11;;;;;;;19.27;9.95;;;;;;;;;;4925051;29;20506;-82
2024/01/17 05:25:39;;;;;;;17.15;10.55;;;;;;;;;;4916740;29;20086;-83
2024/01/17 05:28:06;;;;;;;18.42;10.65;;;;;;;;;;4940865;29;20089;-83
2024/01/17 05:30:34;;;;;;;17.75;9.98;;;;;;;;;;4922351;29;20536;-82
2024/01/17 05:33:01;;;;;;;15.85;9.02;;;;;;;;;;4924127;29;20158;-82
2024/01/17 05:35:29;;;;;;;18.33;9.68;;;;;;;;;;4906722;29;20051;-83
2024/01/17 05:37:56;;;;;;;23.17;9.32;;;;;;;;;;4924522;29;20058;-84
2024/01/17 05:40:23;;;;;;;18.50;9.25;;;;;;;;;;4943635;29;20051;-83
2024/01/17 05:42:51;;;;;;;14.20;9.02;;;;;;;;;;4942991;29;20062;-83
2024/01/17 05:45:17;;;;;;;14.27;8.77;;;;;;;;;;4943288;29;20055;-83
2024/01/17 05:47:44;;;;;;;16.88;9.55;;;;;;;;;;4946563;29;20051;-83
2024/01/17 05:50:11;;;;;;;20.95;10.38;;;;;;;;;;4943010;29;20053;-82
2024/01/17 05:52:40;;;;;;;14.85;9.70;;;;;;;;;;4945898;29;20027;-82
2024/01/17 05:55:10;;;;;;;20.00;10.35;;;;;;;;;;4942451;29;20082;-82
2024/01/17 05:57:37;;;;;;;19.10;10.07;;;;;;;;;;4958466;28;20071;-81
2024/01/17 06:00:08;;;;;;;16.08;9.50;;;;;;;;;;4949015;29;20043;-82
2024/01/17 06:02:39;;;;;;;17.67;9.10;;;;;;;;;;4947955;28;20055;-83
2024/01/17 06:05:08;;;;;;;16.10;9.30;;;;;;;;;;4938695;29;20134;-83
2024/01/17 06:07:35;;;;;;;18.67;9.75;;;;;;;;;;4952681;29;20052;-83
2024/01/17 06:10:02;;;;;;;21.98;10.52;;;;;;;;;;4927062;29;20436;-83
2024/01/17 06:12:29;;;;;;;19.30;10.30;;;;;;;;;;4923148;29;20071;-82
2024/01/17 06:14:56;;;;;;;20.38;10.75;;;;;;;;;;4939430;29;20051;-82
2024/01/17 06:17:23;;;;;;;21.17;10.27;;;;;;;;;;4924117;29;20426;-82
2024/01/17 06:19:50;;;;;;;21.45;10.13;;;;;;;;;;4936739;29;20047;-83
2024/01/17 06:22:18;;;;;;;22.73;10.93;;;;;;;;;;4921656;29;20097;-82
2024/01/17 06:24:48;;;;;;;21.65;10.77;;;;;;;;;;4937572;28;20142;-83
2024/01/17 06:27:15;;;;;;;18.00;10.98;;;;;;;;;;4921935;29;20479;-83
2024/01/17 06:29:42;;;;;;;18.50;11.20;;;;;;;;;;4937905;28;20426;-82
2024/01/17 06:32:10;;;;;;;22.17;10.90;;;;;;;;;;4922193;29;20426;-84
2024/01/17 06:34:36;;;;;;;21.75;11.07;;;;;;;;;;4923136;29;20106;-83
2024/01/17 06:37:04;;;;;;;23.23;11.15;;;;;;;;;;4923051;29;20051;-83
2024/01/17 06:39:32;;;;;;;17.83;10.15;;;;;;;;;;4922321;29;20073;-83
2024/01/17 06:41:59;;;;;;;21.85;11.43;;;;;;;;;;4938303;29;20051;-83
2024/01/17 06:44:27;;;;;;;20.10;12.05;;;;;;;;;;4924673;29;20047;-83
2024/01/17 06:46:55;;;;;;;19.83;11.95;;;;;;;;;;4942532;28;20579;-84
2024/01/17 06:49:22;;;;;;;22.92;13.25;;;;;;;;;;4928850;29;20139;-84
2024/01/17 06:51:49;;;;;;;24.50;13.80;;;;;;;;;;4928308;29;20079;-83
2024/01/17 06:54:16;;;;;;;21.02;12.27;;;;;;;;;;4928810;29;20078;-83
2024/01/17 06:56:44;;;;;;;20.63;11.82;;;;;;;;;;4944382;29;20134;-83
2024/01/17 06:59:11;;;;;;;19.77;11.88;;;;;;;;;;4923114;29;20143;-84
2024/01/17 07:01:39;;;;;;;24.88;11.80;;;;;;;;;;4943135;29;20475;-83
2024/01/17 07:04:07;;;;;;;23.33;13.80;;;;;;;;;;4922414;29;20066;-83
2024/01/17 07:06:35;;;;;;;21.25;12.63;;;;;;;;;;4925235;29;20062;-84
2024/01/17 07:09:02;;;;;;;31.73;15.43;;;;;;;;;;4932616;29;20062;-84
2024/01/17 07:11:33;;;;;;;25.95;14.07;;;;;;;;;;4940097;28;20543;-83
2024/01/17 07:14:00;;;;;;;26.42;14.50;;;;;;;;;;4953649;29;20408;-86
2024/01/17 07:16:27;;;;;;;20.85;12.27;;;;;;;;;;4925217;29;20109;-88
2024/01/17 07:18:55;;;;;;;22.88;12.60;;;;;;;;;;4925160;29;20098;-84
2024/01/17 07:21:22;;;;;;;21.80;11.70;;;;;;;;;;4925012;29;20058;-84
2024/01/17 07:23:49;;;;;;;21.35;11.73;;;;;;;;;;4927777;29;20043;-85
2024/01/17 07:26:17;;;;;;;20.33;12.07;;;;;;;;;;4928981;29;20058;-85
2024/01/17 07:28:44;;;;;;;21.02;12.88;;;;;;;;;;4928030;29;20051;-84
2024/01/17 07:31:10;;;;;;;22.00;11.40;;;;;;;;;;4918683;29;20074;-85
2024/01/17 07:33:37;;;;;;;20.33;10.73;;;;;;;;;;4946663;29;20078;-86
2024/01/17 07:36:18;;;;;;;27.98;12.95;;;;;;;;;;4927247;29;20055;-86
2024/01/17 07:38:45;;;;;;;24.92;12.98;;;;;;;;;;4942858;29;20082;-85
2024/01/17 07:41:12;;;;;;;25.33;13.02;;;;;;;;;;4927481;29;20055;-86
2024/01/17 07:43:39;;;;;;;24.73;13.07;;;;;;;;;;4936867;29;20071;-87
2024/01/17 07:46:05;;;;;;;25.33;12.30;;;;;;;;;;4942441;29;20063;-85
2024/01/17 07:48:33;;;;;;;23.48;12.52;;;;;;;;;;4920648;29;20574;-87
2024/01/17 07:51:00;;;;;;;24.20;13.02;;;;;;;;;;4924764;29;20063;-85
2024/01/17 07:53:27;;;;;;;24.15;13.02;;;;;;;;;;4925212;29;20061;-86
2024/01/17 07:55:55;;;;;;;27.10;12.80;;;;;;;;;;4929791;29;20071;-85
2024/01/17 07:58:26;;;;;;;21.80;11.85;;;;;;;;;;4941230;29;20057;-86
2024/01/17 08:00:54;;;;;;;31.75;14.55;;;;;;;;;;4923111;29;20128;-87
2024/01/17 08:03:31;;;;;;;31.50;12.02;;;;;;;;;;4932147;29;20058;-89
2024/01/17 08:06:05;;;;;;;25.48;12.52;;;;;;;;;;4943478;29;20105;-87
2024/01/17 08:08:48;;;;;;;22.77;12.70;;;;;;;;;;4922319;29;20058;-86
2024/01/17 08:11:15;;;;;;;24.25;13.23;;;;;;;;;;4948293;29;20070;-88
2024/01/17 08:13:42;;;;;;;19.08;10.95;;;;;;;;;;4947404;28;20031;-88
2024/01/17 08:16:12;;;;;;;21.15;12.85;;;;;;;;;;4958287;28;20054;-88
2024/01/17 08:18:39;;;;;;;22.10;12.85;;;;;;;;;;4930161;29;20055;-88
2024/01/17 08:21:06;;;;;;;23.02;13.40;;;;;;;;;;4921960;29;20047;-88
2024/01/17 08:23:34;;;;;;;23.75;12.23;;;;;;;;;;4927202;29;20059;-87
2024/01/17 08:26:01;;;;;;;21.83;12.48;;;;;;;;;;4927173;29;20571;-88
2024/01/17 08:28:28;;;;;;;23.20;13.10;;;;;;;;;;4936622;29;20491;-88
2024/01/17 08:30:55;;;;;;;22.83;12.23;;;;;;;;;;4929103;29;20047;-89
2024/01/17 08:33:21;;;;;;;24.13;12.63;;;;;;;;;;4921512;29;20134;-88
2024/01/17 08:35:48;;;;;;;19.27;12.82;;;;;;;;;;4922250;29;20047;-87
2024/01/17 08:38:15;;;;;;;22.83;13.13;;;;;;;;;;4921333;29;20151;-87
2024/01/17 08:40:42;;;;;;;18.25;10.90;;;;;;;;;;4921273;29;20078;-88
2024/01/17 08:43:09;;;;;;;19.13;12.10;;;;;;;;;;4921486;29;20130;-88
2024/01/17 08:45:36;;;;;;;20.60;11.90;;;;;;;;;;4921196;29;20106;-89
2024/01/17 08:48:03;;;;;;;21.55;11.75;;;;;;;;;;4918851;29;20050;-88
2024/01/17 08:50:31;;;;;;;18.52;10.55;;;;;;;;;;4917990;29;20127;-87
2024/01/17 08:52:58;;;;;;;18.10;9.50;;;;;;;;;;4927341;29;20063;-88
2024/01/17 08:55:24;;;;;;;19.17;10.05;;;;;;;;;;4921413;29;20051;-89
2024/01/17 08:57:54;;;;;;;18.77;9.73;;;;;;;;;;4920975;29;20162;-88
2024/01/17 09:00:21;;;;;;;18.92;10.20;;;;;;;;;;4919152;29;20052;-88
2024/01/17 09:02:49;;;;;;;17.40;10.13;;;;;;;;;;4921633;29;20508;-88
2024/01/17 09:05:18;;;;;;;20.58;10.65;;;;;;;;;;4920683;29;20511;-87
2024/01/17 09:07:45;;;;;;;17.55;10.52;;;;;;;;;;4921610;29;20055;-88
2024/01/17 09:10:13;;;;;;;20.20;10.52;;;;;;;;;;4920267;29;20070;-88
2024/01/17 09:12:41;;;;;;;18.05;9.57;;;;;;;;;;4924791;29;20047;-87
2024/01/17 09:15:08;;;;;;;16.60;9.63;;;;;;;;;;4937070;29;20051;-88
2024/01/17 09:17:35;;;;;;;14.95;8.98;;;;;;;;;;4921146;29;20142;-88
2024/01/17 09:20:06;;;;;;;17.83;9.63;;;;;;;;;;4937878;29;20066;-88
2024/01/17 09:22:33;;;;;;;20.85;10.40;;;;;;;;;;4924945;29;20511;-88
2024/01/17 09:25:00;;;;;;;22.52;11.15;;;;;;;;;;4932019;28;20058;-88
2024/01/17 09:27:28;;;;;;;20.17;11.07;;;;;;;;;;4920690;29;20131;-89
2024/01/17 09:29:56;;;;;;;17.98;10.10;;;;;;;;;;4920466;29;20047;-88
2024/01/17 09:32:23;;;;;;;16.45;8.68;;;;;;;;;;4921317;29;21469;-87
2024/01/17 09:34:50;;;;;;;14.55;8.40;;;;;;;;;;4952159;29;20079;-86
2024/01/17 09:37:17;;;;;;;12.48;7.22;;;;;;;;;;4922862;29;20102;-86
2024/01/17 09:39:44;;;;;;;11.38;6.85;;;;;;;;;;4920379;29;20122;-89
2024/01/17 09:42:10;;;;;;;10.60;5.85;;;;;;;;;;4919203;29;20071;-85
2024/01/17 09:44:37;;;;;;;13.52;7.00;;;;;;;;;;4919873;29;20043;-89
2024/01/17 09:47:05;;;;;;;13.48;7.53;;;;;;;;;;4930280;29;20129;-89
2024/01/17 09:49:32;;;;;;;15.63;8.73;;;;;;;;;;4918551;29;20052;-89
2024/01/17 09:52:08;;;;;;;13.10;9.13;;;;;;;;;;4920197;29;20755;-90
2024/01/17 09:54:46;;;;;;;15.25;9.43;;;;;;;;;;4915606;29;20644;-90
2024/01/17 09:57:23;;;;;;;11.10;8.07;;;;;;;;;;4933071;29;20582;-88
2024/01/17 09:59:53;;;;;;;10.10;7.07;;;;;;;;;;4920950;29;20062;-89
2024/01/17 10:02:20;;;;;;;8.35;5.90;;;;;;;;;;4934251;29;20058;-90
2024/01/17 10:04:48;;;;;;;11.10;6.80;;;;;;;;;;4925683;29;20098;-90
2024/01/17 10:07:16;;;;;;;10.55;6.60;;;;;;;;;;4919126;29;20078;-88
2024/01/17 10:09:48;;;;;;;10.52;5.95;;;;;;;;;;4930795;28;20168;-90
2024/01/17 10:12:27;;;;;;;8.95;6.15;;;;;;;;;;4939671;28;20047;-90
2024/01/17 10:14:58;;;;;;;9.50;6.75;;;;;;;;;;4940907;29;20051;-89
2024/01/17 10:17:30;;;;;;;7.95;5.78;;;;;;;;;;4923005;29;20090;-90
2024/01/17 10:27:59;;;;;;;13.40;6.13;;;;;;;;;;4891045;29;20055;-88
2024/01/17 10:30:34;;;;;;;7.90;5.50;;;;;;;;;;4877458;29;20056;-88
2024/01/17 10:33:07;;;;;;;10.93;5.80;;;;;;;;;;4856475;29;20057;-87
2024/01/17 10:35:34;;;;;;;9.68;5.47;;;;;;;;;;4877035;29;20044;-86
2024/01/17 10:38:02;;;;;;;10.65;5.93;;;;;;;;;;4867684;29;20088;-87
2024/01/17 10:40:29;;;;;;;9.80;5.65;;;;;;;;;;4854806;29;20631;-86
2024/01/17 10:43:09;;;;;;;8.65;5.53;;;;;;;;;;4862651;29;20060;-87
2024/01/17 10:45:39;;;;;;;10.75;5.68;;;;;;;;;;4858678;29;20072;-86
2024/01/17 10:48:09;;;;;;;6.75;4.88;;;;;;;;;;4870123;29;20135;-86
2024/01/17 10:50:36;;;;;;;9.63;5.43;;;;;;;;;;4864872;29;20072;-86
2024/01/17 10:53:05;;;;;;;6.63;5.00;;;;;;;;;;4858417;29;20048;-87
2024/01/17 10:55:36;;;;;;;6.53;4.03;;;;;;;;;;4865468;29;20579;-87
2024/01/17 10:58:12;;;;;;;7.45;5.20;;;;;;;;;;4865606;29;20522;-85
2024/01/17 11:00:43;;;;;;;7.63;4.70;;;;;;;;;;4880655;29;20052;-88
2024/01/17 11:03:13;;;;;;;7.82;4.53;;;;;;;;;;4946354;29;20051;-87
2024/01/17 11:05:49;;;;;;;12.45;5.53;;;;;;;;;;4938502;29;20052;-87
2024/01/17 11:08:18;;;;;;;12.30;6.57;;;;;;;;;;4958064;29;20062;-88
2024/01/17 11:10:45;;;;;;;13.93;7.45;;;;;;;;;;4922389;29;20051;-87
2024/01/17 11:13:12;;;;;;;12.73;5.63;;;;;;;;;;4927770;29;20079;-85
2024/01/17 11:15:39;;;;;;;13.70;6.18;;;;;;;;;;4921459;29;20574;-85
2024/01/17 11:18:06;;;;;;;10.02;5.45;;;;;;;;;;4922772;29;20094;-85
2024/01/17 11:20:33;;;;;;;9.48;5.22;;;;;;;;;;4931631;29;20051;-85
2024/01/17 11:23:01;;;;;;;11.07;5.78;;;;;;;;;;4931594;29;20047;-85
2024/01/17 11:25:56;;;;;;;9.32;5.43;;;;;;;;;;4921475;29;20140;-85
2024/01/17 11:28:55;;;;;;;8.57;5.40;;;;;;;;;;4954277;29;20052;-86
2024/01/17 11:31:44;;;;;;;7.97;5.07;;;;;;;;;;4947851;28;20055;-86
2024/01/17 11:34:11;;;;;;;8.45;5.32;;;;;;;;;;4951538;29;20102;-85
2024/01/17 11:36:47;;;;;;;9.85;5.63;;;;;;;;;;4919517;29;20059;-86
2024/01/17 11:39:16;;;;;;;8.88;4.55;;;;;;;;;;4938041;29;20076;-86
2024/01/17 11:41:44;;;;;;;7.43;4.68;;;;;;;;;;4919752;29;20055;-86
2024/01/17 11:44:12;;;;;;;8.25;4.72;;;;;;;;;;4922049;29;20051;-85
2024/01/17 11:46:39;;;;;;;9.30;4.53;;;;;;;;;;4921784;29;20047;-86
2024/01/17 11:49:09;;;;;;;7.90;4.25;;;;;;;;;;4927962;29;20061;-85
2024/01/17 11:51:37;;;;;;;9.15;4.63;;;;;;;;;;4921071;29;20139;-86
2024/01/17 11:54:04;;;;;;;7.32;4.05;;;;;;;;;;4921854;29;20087;-85
2024/01/17 11:56:31;;;;;;;8.82;4.75;;;;;;;;;;4920978;29;20582;-85
2024/01/17 11:59:12;;;;;;;7.78;4.68;;;;;;;;;;4922026;29;20063;-89
2024/01/17 12:01:41;;;;;;;9.02;3.63;;;;;;;;;;4937109;29;20043;-86
2024/01/17 12:04:13;;;;;;;9.60;4.50;;;;;;;;;;4921201;29;20495;-85
2024/01/17 12:06:42;;;;;;;6.32;3.83;;;;;;;;;;4930240;29;20487;-86
2024/01/17 12:09:15;;;;;;;4.93;2.85;;;;;;;;;;4928848;29;20724;-85
2024/01/17 12:11:42;;;;;;;4.82;2.85;;;;;;;;;;4929493;28;20075;-87
2024/01/17 12:14:09;;;;;;;6.63;3.30;;;;;;;;;;4921741;29;20047;-87
2024/01/17 12:16:36;;;;;;;5.00;3.55;;;;;;;;;;4927751;29;20071;-86
2024/01/17 12:19:03;;;;;;;5.47;3.88;;;;;;;;;;4937045;29;20087;-87
2024/01/17 12:21:30;;;;;;;7.93;4.38;;;;;;;;;;4919511;29;20503;-87
2024/01/17 12:23:57;;;;;;;5.03;3.78;;;;;;;;;;4927924;28;20051;-87
2024/01/17 12:26:26;;;;;;;5.55;3.97;;;;;;;;;;4918463;29;20138;-87
2024/01/17 12:29:10;;;;;;;7.03;4.75;;;;;;;;;;4921649;29;20550;-86
2024/01/17 12:31:37;;;;;;;9.05;5.68;;;;;;;;;;4937792;29;20058;-87
2024/01/17 12:34:10;;;;;;;8.05;4.28;;;;;;;;;;4926588;29;20055;-86
2024/01/17 12:36:38;;;;;;;7.22;4.15;;;;;;;;;;4922973;29;20051;-88
2024/01/17 12:39:05;;;;;;;6.32;3.75;;;;;;;;;;4952046;29;20511;-87
2024/01/17 12:41:33;;;;;;;8.98;3.90;;;;;;;;;;4929007;28;20043;-88
2024/01/17 12:44:00;;;;;;;7.07;4.35;;;;;;;;;;4920545;29;20138;-87
2024/01/17 12:46:27;;;;;;;4.85;4.05;;;;;;;;;;4922270;29;20059;-87
2024/01/17 12:48:56;;;;;;;8.38;4.20;;;;;;;;;;4917612;29;20463;-86
2024/01/17 12:51:23;;;;;;;7.63;4.25;;;;;;;;;;4931755;28;20419;-87
2024/01/17 12:53:53;;;;;;;6.40;4.32;;;;;;;;;;4931957;29;20150;-87
2024/01/17 12:56:20;;;;;;;6.63;4.95;;;;;;;;;;4923476;29;20059;-87
2024/01/17 12:58:51;;;;;;;9.30;4.90;;;;;;;;;;4926981;28;20071;-86
2024/01/17 13:01:17;;;;;;;6.82;4.55;;;;;;;;;;4920023;29;20047;-86
2024/01/17 13:03:59;;;;;;;17.67;9.90;;;;;;;;;;4920299;29;20061;-87
2024/01/17 13:06:26;;;;;;;9.77;6.43;;;;;;;;;;4917015;29;20058;-87
2024/01/17 13:08:53;;;;;;;10.70;5.95;;;;;;;;;;4925905;29;20061;-87
2024/01/17 13:11:23;;;;;;;8.75;5.10;;;;;;;;;;4919958;29;20061;-86
2024/01/17 13:13:57;;;;;;;6.28;4.10;;;;;;;;;;4928041;29;20457;-86
2024/01/17 13:16:30;;;;;;;7.43;4.57;;;;;;;;;;4921625;29;20487;-86
2024/01/17 13:18:57;;;;;;;6.57;4.57;;;;;;;;;;4919931;29;20145;-86
2024/01/17 13:21:24;;;;;;;8.23;5.13;;;;;;;;;;4918023;29;20048;-88
2024/01/17 13:23:51;;;;;;;6.68;4.60;;;;;;;;;;4930718;29;20090;-86
2024/01/17 13:26:18;;;;;;;7.25;4.50;;;;;;;;;;4935632;29;20058;-86
2024/01/17 13:28:45;;;;;;;6.88;4.35;;;;;;;;;;4930688;29;20063;-86
2024/01/17 13:31:12;;;;;;;5.45;3.92;;;;;;;;;;4918368;29;20053;-86
2024/01/17 13:33:39;;;;;;;6.43;3.60;;;;;;;;;;4925514;28;20500;-86
2024/01/17 13:36:06;;;;;;;3.97;3.08;;;;;;;;;;4919706;29;20055;-85
2024/01/17 13:38:35;;;;;;;5.75;3.97;;;;;;;;;;4925566;29;20049;-86
2024/01/17 13:41:03;;;;;;;4.60;3.55;;;;;;;;;;4920702;29;20055;-86
2024/01/17 13:43:30;;;;;;;7.38;3.63;;;;;;;;;;4924090;28;20059;-86
2024/01/17 13:45:56;;;;;;;3.42;2.78;;;;;;;;;;4924825;29;20138;-86
2024/01/17 13:48:23;;;;;;;6.28;2.70;;;;;;;;;;4918440;29;20059;-88
2024/01/17 13:50:51;;;;;;;3.80;2.45;;;;;;;;;;4922238;29;20099;-87
2024/01/17 13:53:28;;;;;;;2.38;2.10;;;;;;;;;;4936099;29;20055;-87
2024/01/17 13:55:57;;;;;;;3.92;2.22;;;;;;;;;;4919986;29;20059;-87
2024/01/17 13:58:24;;;;;;;3.08;2.10;;;;;;;;;;4920097;29;20507;-87
2024/01/17 14:00:55;;;;;;;4.38;2.67;;;;;;;;;;4923550;29;20074;-88
2024/01/17 14:03:22;;;;;;;6.40;2.40;;;;;;;;;;4919027;29;20051;-87
2024/01/17 14:05:49;;;;;;;3.35;1.80;;;;;;;;;;4916313;29;20047;-87
2024/01/17 14:08:16;;;;;;;3.13;2.17;;;;;;;;;;4920749;29;20051;-87
2024/01/17 14:10:43;;;;;;;3.10;2.28;;;;;;;;;;4917039;29;20067;-88
2024/01/17 14:13:13;;;;;;;4.80;2.10;;;;;;;;;;4919761;29;20043;-86
2024/01/17 14:15:42;;;;;;;3.67;2.10;;;;;;;;;;4935411;29;20043;-87
2024/01/17 14:18:10;;;;;;;3.13;2.20;;;;;;;;;;4950604;29;20055;-87
2024/01/17 14:20:37;;;;;;;3.80;2.53;;;;;;;;;;4919533;29;20148;-87
2024/01/17 14:23:04;;;;;;;3.97;2.45;;;;;;;;;;4919750;29;20503;-86
2024/01/17 14:25:34;;;;;;;3.30;2.30;;;;;;;;;;4920042;29;20110;-86
2024/01/17 14:28:02;;;;;;;3.63;2.38;;;;;;;;;;4920793;29;20510;-85
2024/01/17 14:30:29;;;;;;;4.15;2.60;;;;;;;;;;4932743;29;20054;-86
2024/01/17 14:33:00;;;;;;;4.40;2.70;;;;;;;;;;4919035;29;20060;-87
2024/01/17 14:35:32;;;;;;;3.58;2.42;;;;;;;;;;4919709;29;20058;-86
2024/01/17 14:38:04;;;;;;;2.85;2.20;;;;;;;;;;4920811;29;20059;-86
2024/01/17 14:40:30;;;;;;;5.38;2.30;;;;;;;;;;4919662;29;20587;-86
2024/01/17 14:42:58;;;;;;;2.97;1.80;;;;;;;;;;4927990;29;20081;-86
2024/01/17 14:45:24;;;;;;;3.60;2.45;;;;;;;;;;4917153;29;20052;-86